createdAt,value
2019-01-29T00:01:45.950Z,10.86
2019-01-29T00:04:38.171Z,10.86
2019-01-29T00:07:31.451Z,10.65
2019-01-29T00:10:22.206Z,10.51
2019-01-29T00:13:12.244Z,10.33
2019-01-29T00:16:02.418Z,10.27
2019-01-29T00:21:37.311Z,10.30
2019-01-29T00:27:12.142Z,10.20
2019-01-29T00:30:01.858Z,10.20
2019-01-29T00:33:18.064Z,10.20
2019-01-29T00:39:36.031Z,10.04
2019-01-29T00:42:18.854Z,10.15
2019-01-29T00:44:58.625Z,10.61
2019-01-29T00:48:08.885Z,10.49
2019-01-29T00:50:58.916Z,10.65
2019-01-29T00:53:29.825Z,10.81
2019-01-29T00:59:24.557Z,10.73
2019-01-29T01:02:15.007Z,10.63
2019-01-29T01:05:05.013Z,10.64
2019-01-29T01:07:54.924Z,10.69
2019-01-29T01:10:27.051Z,10.54
2019-01-29T01:13:17.602Z,10.31
2019-01-29T01:15:51.350Z,10.22
2019-01-29T01:18:22.312Z,9.91
2019-01-29T01:21:31.349Z,9.61
2019-01-29T01:24:21.347Z,9.45
2019-01-29T01:27:11.350Z,9.74
2019-01-29T01:29:42.366Z,10.08
2019-01-29T01:35:15.741Z,10.52
2019-01-29T01:37:46.752Z,10.49
2019-01-29T01:40:37.593Z,10.21
2019-01-29T01:43:09.449Z,10.06
2019-01-29T01:45:59.432Z,9.78
2019-01-29T01:48:42.514Z,9.47
2019-01-29T01:51:04.247Z,9.66
2019-01-29T01:53:36.058Z,9.30
2019-01-29T01:56:25.992Z,9.38
2019-01-29T02:02:00.064Z,9.39
2019-01-29T02:04:50.526Z,9.54
2019-01-29T02:07:22.440Z,9.34
2019-01-29T02:13:20.408Z,9.07
2019-01-29T02:22:28.805Z,8.75
2019-01-29T02:37:06.403Z,8.52
2019-01-29T02:39:59.279Z,8.42
2019-01-29T02:42:54.016Z,8.40
2019-01-29T02:45:25.554Z,8.62
2019-01-29T02:47:56.483Z,8.81
2019-01-29T02:51:07.450Z,8.80
2019-01-29T02:53:38.466Z,8.77
2019-01-29T02:56:14.075Z,8.58
2019-01-29T03:02:39.135Z,8.59
2019-01-29T03:05:10.905Z,8.59
2019-01-29T03:07:41.884Z,8.86
2019-01-29T03:10:14.051Z,9.25
2019-01-29T03:12:45.033Z,9.49
2019-01-29T03:15:22.147Z,9.65
2019-01-29T03:17:53.174Z,9.55
2019-01-29T03:20:24.116Z,9.43
2019-01-29T03:25:44.856Z,9.12
2019-01-29T03:28:15.795Z,9.15
2019-01-29T03:31:38.910Z,8.94
2019-01-29T03:34:18.924Z,8.65
2019-01-29T03:36:49.859Z,8.64
2019-01-29T03:39:42.758Z,8.87
2019-01-29T03:42:13.752Z,8.61
2019-01-29T03:44:44.796Z,8.58
2019-01-29T03:50:25.871Z,8.69
2019-01-29T03:52:56.837Z,8.63
2019-01-29T03:56:06.749Z,8.63
2019-01-29T04:01:39.638Z,8.72
2019-01-29T04:04:15.599Z,8.69
2019-01-29T04:06:47.679Z,8.74
2019-01-29T04:09:22.597Z,8.79
2019-01-29T04:11:53.505Z,8.83
2019-01-29T04:14:43.388Z,8.54
2019-01-29T04:17:14.465Z,8.62
2019-01-29T04:19:45.429Z,8.69
2019-01-29T04:22:36.326Z,8.74
2019-01-29T04:25:07.372Z,8.74
2019-01-29T04:27:38.387Z,8.90
2019-01-29T04:30:31.287Z,8.70
2019-01-29T04:33:02.244Z,8.75
2019-01-29T04:38:42.017Z,8.53
2019-01-29T04:41:32.036Z,8.53
2019-01-29T04:49:55.504Z,8.29
2019-01-29T04:52:26.486Z,8.58
2019-01-29T04:57:58.614Z,8.54
2019-01-29T05:04:17.634Z,8.57
2019-01-29T05:06:49.805Z,8.59
2019-01-29T05:09:41.109Z,8.82
2019-01-29T05:12:13.032Z,8.91
2019-01-29T05:15:03.336Z,9.07
2019-01-29T05:17:34.288Z,8.80
2019-01-29T05:20:05.609Z,8.70
2019-01-29T05:22:55.606Z,8.76
2019-01-29T05:25:26.536Z,8.73
2019-01-29T05:27:57.489Z,8.72
2019-01-29T05:30:47.505Z,8.97
2019-01-29T05:33:19.046Z,9.19
2019-01-29T05:35:50.164Z,9.10
2019-01-29T05:38:40.120Z,9.03
2019-01-29T05:41:11.115Z,9.13
2019-01-29T05:44:03.859Z,8.73
2019-01-29T05:46:54.787Z,8.97
2019-01-29T05:49:26.626Z,8.91
2019-01-29T05:51:57.548Z,8.73
2019-01-29T05:54:47.601Z,8.82
2019-01-29T05:57:18.478Z,8.82
2019-01-29T05:59:49.565Z,8.84
2019-01-29T06:02:39.788Z,8.69
2019-01-29T06:05:17.949Z,9.01
2019-01-29T06:07:48.807Z,8.60
2019-01-29T06:10:39.664Z,8.70
2019-01-29T06:13:12.068Z,9.07
2019-01-29T06:16:04.807Z,8.72
2019-01-29T06:18:36.583Z,8.71
2019-01-29T06:21:26.564Z,8.52
2019-01-29T06:27:22.023Z,8.56
2019-01-29T06:30:33.161Z,8.66
2019-01-29T06:33:23.263Z,8.70
2019-01-29T06:35:54.277Z,8.53
2019-01-29T06:38:28.407Z,8.43
2019-01-29T06:44:59.711Z,8.66
2019-01-29T06:50:24.092Z,8.68
2019-01-29T06:53:08.429Z,8.38
2019-01-29T06:55:29.454Z,8.68
2019-01-29T06:58:20.341Z,8.57
2019-01-29T07:01:29.416Z,8.15
2019-01-29T07:04:00.417Z,8.00
2019-01-29T07:06:31.426Z,8.69
2019-01-29T07:09:03.338Z,8.66
2019-01-29T07:12:14.038Z,8.26
2019-01-29T07:14:48.636Z,8.01
2019-01-29T07:20:15.844Z,7.55
2019-01-29T07:25:51.547Z,7.59
2019-01-29T07:28:22.525Z,7.77
2019-01-29T07:30:53.472Z,7.66
2019-01-29T07:36:48.314Z,7.53
2019-01-29T07:39:22.534Z,7.82
2019-01-29T07:42:26.978Z,7.87
2019-01-29T07:44:47.897Z,7.72
2019-01-29T07:47:17.883Z,7.41
2019-01-29T07:50:03.445Z,7.55
2019-01-29T07:52:23.519Z,7.70
2019-01-29T07:54:54.481Z,7.69
2019-01-29T08:00:36.537Z,8.07
2019-01-29T08:03:08.342Z,8.31
2019-01-29T08:05:40.140Z,8.34
2019-01-29T08:08:44.235Z,8.43
2019-01-29T08:17:22.141Z,8.91
2019-01-29T08:20:12.618Z,8.96
2019-01-29T08:25:25.880Z,8.56
2019-01-29T08:31:00.290Z,8.63
2019-01-29T08:34:21.314Z,8.61
2019-01-29T08:40:02.623Z,8.78
2019-01-29T08:42:54.248Z,8.80
2019-01-29T08:45:43.285Z,9.17
2019-01-29T08:48:32.347Z,9.46
2019-01-29T08:54:14.339Z,9.47
2019-01-29T08:57:03.478Z,9.90
2019-01-29T08:59:53.444Z,9.76
2019-01-29T09:02:25.279Z,9.66
2019-01-29T09:05:15.623Z,9.65
2019-01-29T09:07:46.635Z,9.51
2019-01-29T09:13:52.663Z,9.60
2019-01-29T09:16:41.900Z,9.65
2019-01-29T09:19:33.278Z,9.67
2019-01-29T09:22:23.290Z,9.79
2019-01-29T09:27:56.098Z,10.36
2019-01-29T09:30:26.202Z,10.72
2019-01-29T09:33:19.166Z,10.83
2019-01-29T09:36:08.901Z,10.90
2019-01-29T09:38:58.920Z,10.88
2019-01-29T09:41:44.781Z,10.55
2019-01-29T09:44:38.166Z,10.55
2019-01-29T09:47:21.198Z,10.33
2019-01-29T09:49:52.457Z,10.33
2019-01-29T09:52:23.372Z,10.14
2019-01-29T09:55:07.055Z,10.09
2019-01-29T09:57:49.953Z,10.11
2019-01-29T10:00:55.441Z,10.19
2019-01-29T10:03:55.282Z,9.99
2019-01-29T10:06:26.219Z,10.11
2019-01-29T10:08:58.002Z,10.06
2019-01-29T10:11:48.208Z,10.08
2019-01-29T10:14:19.317Z,10.23
2019-01-29T10:19:50.467Z,10.16
2019-01-29T10:22:59.993Z,10.17
2019-01-29T10:38:04.203Z,10.26
2019-01-29T10:40:34.389Z,10.29
2019-01-29T10:43:43.907Z,10.44
2019-01-29T10:46:35.043Z,10.39
2019-01-29T10:49:37.030Z,10.34
2019-01-29T10:55:18.684Z,10.64
2019-01-29T10:57:48.800Z,10.72
2019-01-29T11:00:39.586Z,10.67
2019-01-29T11:06:37.701Z,11.06
2019-01-29T11:09:41.000Z,11.00
2019-01-29T11:12:35.706Z,10.82
2019-01-29T11:15:14.922Z,10.78
2019-01-29T11:17:50.726Z,11.03
2019-01-29T11:21:03.926Z,11.02
2019-01-29T11:24:08.196Z,11.51
2019-01-29T11:27:09.739Z,11.21
2019-01-29T11:30:00.539Z,11.33
2019-01-29T11:38:17.478Z,11.12
2019-01-29T11:41:09.414Z,11.18
2019-01-29T11:43:40.839Z,11.27
2019-01-29T11:49:20.342Z,11.34
2019-01-29T11:52:12.828Z,11.56
2019-01-29T11:55:04.157Z,11.57
2019-01-29T11:57:57.122Z,11.74
2019-01-29T12:00:48.825Z,12.02
2019-01-29T12:06:28.487Z,11.66
2019-01-29T12:15:42.011Z,12.02
2019-01-29T12:18:34.766Z,12.02
2019-01-29T12:21:03.687Z,12.16
2019-01-29T12:23:34.696Z,12.20
2019-01-29T12:26:25.282Z,12.04
2019-01-29T12:29:09.018Z,12.14
2019-01-29T12:37:57.072Z,13.41
2019-01-29T12:43:16.072Z,13.62
2019-01-29T12:46:06.150Z,13.64
2019-01-29T12:48:36.227Z,13.37
2019-01-29T12:54:17.434Z,13.31
2019-01-29T13:00:08.060Z,13.47
2019-01-29T13:02:57.155Z,13.93
2019-01-29T13:05:27.422Z,13.71
2019-01-29T13:08:11.377Z,13.64
2019-01-29T13:10:31.938Z,13.41
2019-01-29T13:13:02.069Z,13.28
2019-01-29T13:15:50.814Z,13.19
2019-01-29T13:18:42.403Z,13.32
2019-01-29T13:21:12.537Z,13.06
2019-01-29T13:26:33.056Z,12.85
2019-01-29T13:29:07.440Z,12.84
2019-01-29T13:32:16.753Z,12.78
2019-01-29T13:35:24.891Z,12.71
2019-01-29T13:38:41.795Z,12.85
2019-01-29T13:41:36.249Z,12.87
2019-01-29T13:44:08.218Z,12.97
2019-01-29T13:47:19.499Z,13.21
2019-01-29T13:50:28.853Z,13.40
2019-01-29T13:53:17.933Z,13.24
2019-01-29T13:55:48.007Z,13.16
2019-01-29T13:58:37.701Z,13.28
2019-01-29T14:01:29.112Z,13.19
2019-01-29T14:04:19.084Z,12.82
2019-01-29T14:07:02.017Z,12.41
2019-01-29T14:09:22.221Z,12.46
2019-01-29T14:11:52.316Z,12.93
2019-01-29T14:20:22.640Z,12.53
2019-01-29T14:22:52.761Z,12.65
2019-01-29T14:25:38.353Z,12.55
2019-01-29T14:27:57.488Z,12.53
2019-01-29T14:33:28.724Z,12.63
2019-01-29T14:36:17.719Z,12.51
2019-01-29T14:39:40.343Z,12.70
2019-01-29T14:42:19.113Z,12.69
2019-01-29T14:47:54.548Z,11.93
2019-01-29T14:50:44.535Z,12.32
2019-01-29T14:53:38.209Z,12.08
2019-01-29T14:56:57.014Z,12.06
2019-01-29T14:59:55.223Z,12.38
2019-01-29T15:03:04.287Z,12.30
2019-01-29T15:09:34.209Z,12.21
2019-01-29T15:12:15.453Z,12.30
2019-01-29T15:15:04.597Z,12.51
2019-01-29T15:18:16.121Z,12.35
2019-01-29T15:23:35.417Z,12.09
2019-01-29T15:26:24.172Z,12.09
2019-01-29T15:29:13.243Z,12.16
2019-01-29T15:32:16.237Z,12.40
2019-01-29T15:37:47.946Z,12.27
2019-01-29T15:40:37.102Z,12.49
2019-01-29T15:43:26.101Z,12.50
2019-01-29T15:46:41.405Z,12.54
2019-01-29T15:48:51.695Z,12.58
2019-01-29T15:51:22.710Z,12.78
2019-01-29T15:54:05.307Z,12.84
2019-01-29T15:56:47.375Z,12.59
2019-01-29T15:59:17.422Z,12.30
2019-01-29T16:02:06.548Z,12.40
2019-01-29T16:08:13.792Z,12.07
2019-01-29T16:10:45.453Z,11.72
2019-01-29T16:13:16.736Z,11.59
2019-01-29T16:16:08.272Z,11.39
2019-01-29T16:18:58.638Z,11.50
2019-01-29T16:25:06.066Z,11.43
2019-01-29T16:27:58.822Z,11.36
2019-01-29T16:30:52.268Z,11.33
2019-01-29T16:33:23.980Z,11.29
2019-01-29T16:44:48.464Z,11.03
2019-01-29T16:47:32.320Z,11.14
2019-01-29T16:49:52.048Z,11.06
2019-01-29T16:52:27.963Z,11.10
2019-01-29T17:01:17.482Z,11.33
2019-01-29T17:03:54.864Z,11.10
2019-01-29T17:06:39.399Z,11.03
2019-01-29T17:08:58.760Z,11.01
2019-01-29T17:11:28.815Z,10.98
2019-01-29T17:14:00.444Z,11.01
2019-01-29T17:19:41.544Z,10.88
2019-01-29T17:22:13.403Z,11.01
2019-01-29T17:27:44.361Z,11.11
2019-01-29T17:30:25.870Z,11.11
2019-01-29T17:33:20.218Z,10.94
2019-01-29T17:36:12.399Z,10.82
2019-01-29T17:42:05.689Z,10.62
2019-01-29T17:44:38.910Z,10.98
2019-01-29T17:47:10.997Z,10.76
2019-01-29T17:49:41.112Z,10.63
2019-01-29T17:52:13.019Z,10.51
2019-01-29T17:57:54.512Z,10.47
2019-01-29T18:01:05.728Z,10.35
2019-01-29T18:03:55.718Z,10.30
2019-01-29T18:09:38.387Z,10.72
2019-01-29T18:12:09.308Z,10.19
2019-01-29T18:17:41.485Z,10.05
2019-01-29T18:23:01.201Z,10.04
2019-01-29T18:25:50.334Z,9.73
2019-01-29T18:28:40.315Z,9.72
2019-01-29T18:31:50.489Z,9.67
2019-01-29T18:35:00.042Z,9.80
2019-01-29T18:41:06.523Z,9.55
2019-01-29T18:43:56.512Z,9.52
2019-01-29T18:53:29.215Z,9.47
2019-01-29T18:56:10.592Z,9.57
2019-01-29T19:02:35.586Z,9.35
2019-01-29T19:05:13.485Z,9.14
2019-01-29T19:13:34.609Z,9.05
2019-01-29T19:16:08.258Z,9.28
2019-01-29T19:21:41.699Z,9.24
2019-01-29T19:24:43.098Z,9.03
2019-01-29T19:30:44.719Z,9.13
2019-01-29T19:36:46.378Z,9.02
2019-01-29T19:39:56.550Z,8.82
2019-01-29T19:46:16.022Z,8.92
2019-01-29T19:48:50.889Z,9.77
2019-01-29T19:54:47.414Z,8.95
2019-01-29T19:57:37.411Z,8.96
2019-01-29T20:04:03.013Z,8.97
2019-01-29T20:06:52.205Z,9.08
2019-01-29T20:10:02.487Z,8.66
2019-01-29T20:12:40.314Z,9.00
2019-01-29T20:15:15.485Z,8.85
2019-01-29T20:18:06.118Z,8.72
2019-01-29T20:20:59.539Z,8.52
2019-01-29T20:24:10.714Z,8.46
2019-01-29T20:26:59.830Z,8.53
2019-01-29T20:29:29.920Z,8.47
2019-01-29T20:32:03.305Z,8.52
2019-01-29T20:34:54.084Z,8.55
2019-01-29T20:37:25.014Z,8.82
2019-01-29T20:39:55.125Z,8.82
2019-01-29T20:42:27.339Z,8.52
2019-01-29T20:45:17.349Z,9.40
2019-01-29T20:48:08.625Z,9.22
2019-01-29T20:50:38.666Z,9.40
2019-01-29T20:53:12.183Z,9.63
2019-01-29T20:56:02.446Z,8.74
2019-01-29T20:58:34.281Z,8.77
2019-01-29T21:04:46.068Z,8.57
2019-01-29T21:07:56.018Z,8.37
2019-01-29T21:10:27.002Z,8.78
2019-01-29T21:13:20.441Z,8.73
2019-01-29T21:16:30.041Z,8.54
2019-01-29T21:19:20.039Z,8.32
2019-01-29T21:24:59.771Z,8.20
2019-01-29T21:27:30.661Z,8.23
2019-01-29T21:30:01.629Z,8.55
2019-01-29T21:32:51.868Z,8.34
2019-01-29T21:35:44.454Z,8.36
2019-01-29T21:41:16.009Z,8.61
2019-01-29T21:46:31.404Z,8.72
2019-01-29T21:49:01.664Z,8.92
2019-01-29T21:54:48.515Z,8.56
2019-01-29T21:57:18.567Z,8.46
2019-01-29T22:00:09.167Z,8.52
2019-01-29T22:02:39.252Z,8.52
2019-01-29T22:05:11.822Z,8.70
2019-01-29T22:08:20.951Z,8.82
2019-01-29T22:14:01.534Z,9.03
2019-01-29T22:16:31.630Z,8.79
2019-01-29T22:19:01.807Z,8.79
2019-01-29T22:21:31.806Z,8.91
2019-01-29T22:24:03.821Z,8.99
2019-01-29T22:26:57.842Z,8.97
2019-01-29T22:32:27.715Z,8.97
2019-01-29T22:34:58.692Z,8.97
2019-01-29T22:37:28.754Z,8.97
2019-01-29T22:40:22.245Z,9.04
2019-01-29T22:43:13.133Z,9.16
2019-01-29T22:46:22.279Z,8.97
2019-01-29T22:49:11.449Z,8.93
2019-01-29T22:51:52.978Z,8.75
2019-01-29T22:54:53.979Z,8.75
2019-01-29T22:59:53.284Z,8.71
2019-01-29T23:08:16.131Z,8.50
2019-01-29T23:11:05.515Z,8.46
2019-01-29T23:13:54.334Z,8.39
2019-01-29T23:16:43.408Z,8.28
2019-01-29T23:22:15.808Z,8.14
2019-01-29T23:27:55.426Z,8.12
2019-01-29T23:37:28.229Z,7.93
2019-01-29T23:46:08.908Z,7.89
2019-01-29T23:49:02.532Z,7.91
2019-01-29T23:52:03.855Z,8.01
